createdAt,value
2022-10-24T00:00:25.512Z,96945.07
2022-10-24T00:10:50.582Z,96953.98
2022-10-24T00:20:54.728Z,96961.27
2022-10-24T00:30:58.668Z,96951.59
2022-10-24T00:41:02.533Z,96931.90
2022-10-24T00:51:17.347Z,96928.84
2022-10-24T01:01:21.247Z,96923.86
2022-10-24T01:11:34.290Z,96912.43
2022-10-24T01:21:46.651Z,96914.89
2022-10-24T01:32:17.237Z,96924.48
2022-10-24T01:42:23.439Z,96909.29
2022-10-24T01:52:32.256Z,96894.99
2022-10-24T02:02:49.425Z,96886.67
2022-10-24T02:13:00.469Z,96886.21
2022-10-24T02:23:27.647Z,96876.65
2022-10-24T02:33:32.969Z,96878.20
2022-10-24T02:43:39.183Z,96886.42
2022-10-24T02:53:43.063Z,96885.40
2022-10-24T03:03:47.239Z,96881.55
2022-10-24T03:13:51.641Z,96883.33
2022-10-24T03:23:55.342Z,96875.83
2022-10-24T03:33:59.767Z,96865.00
2022-10-24T03:44:03.566Z,96874.78
2022-10-24T03:54:07.294Z,96871.82
2022-10-24T04:04:10.887Z,96855.06
2022-10-24T04:14:15.071Z,96857.70
2022-10-24T04:24:18.722Z,96851.05
2022-10-24T04:34:22.597Z,96845.25
2022-10-24T04:44:26.067Z,96831.60
2022-10-24T04:54:29.618Z,96843.96
2022-10-24T05:04:33.571Z,96855.95
2022-10-24T05:14:37.364Z,96868.13
2022-10-24T05:24:41.564Z,96871.46
2022-10-24T05:34:45.401Z,96862.23
2022-10-24T05:44:49.568Z,96862.94
2022-10-24T05:55:06.698Z,96856.70
2022-10-24T06:05:12.604Z,96847.84
2022-10-24T06:15:16.248Z,96857.20
2022-10-24T06:25:20.509Z,96869.88
2022-10-24T06:35:24.178Z,96895.83
2022-10-24T06:45:28.085Z,96904.75
2022-10-24T06:55:31.905Z,96883.45
2022-10-24T07:05:37.413Z,96891.59
2022-10-24T07:15:41.581Z,96907.77
2022-10-24T07:25:45.826Z,96921.61
2022-10-24T07:35:49.910Z,96923.04
2022-10-24T07:45:54.141Z,96916.22
2022-10-24T07:56:00.439Z,96908.58
2022-10-24T08:06:17.118Z,96920.03
2022-10-24T08:16:23.132Z,96904.88
2022-10-24T08:26:27.820Z,96890.22
2022-10-24T08:36:37.498Z,96883.97
2022-10-24T08:47:19.713Z,96875.06
2022-10-24T08:57:29.563Z,96874.00
2022-10-24T09:07:33.869Z,96856.48
2022-10-24T09:17:38.665Z,96844.96
2022-10-24T09:27:44.271Z,96847.66
2022-10-24T09:37:55.906Z,96843.46
2022-10-24T09:48:24.687Z,96826.84
2022-10-24T09:58:36.204Z,96818.02
2022-10-24T10:08:41.575Z,96814.84
2022-10-24T10:18:47.510Z,96803.61
2022-10-24T10:29:21.252Z,96803.64
2022-10-24T10:39:57.868Z,96806.20
2022-10-24T10:50:03.508Z,96811.84
2022-10-24T11:00:18.720Z,96804.66
2022-10-24T11:10:28.334Z,96796.88
2022-10-24T11:20:38.340Z,96792.79
2022-10-24T11:30:56.534Z,96788.61
2022-10-24T11:41:20.553Z,96791.23
2022-10-24T11:51:39.575Z,96798.86
2022-10-24T12:01:52.329Z,96797.98
2022-10-24T12:12:19.021Z,96791.52
2022-10-24T12:22:30.504Z,96786.06
2022-10-24T12:32:41.007Z,96787.66
2022-10-24T12:42:44.942Z,96789.30
2022-10-24T12:52:50.475Z,96781.45
2022-10-24T13:03:08.662Z,96771.98
2022-10-24T13:13:44.157Z,96760.14
2022-10-24T13:23:49.769Z,96747.52
2022-10-24T13:34:07.341Z,96746.04
2022-10-24T13:44:45.911Z,96760.03
2022-10-24T13:54:56.629Z,96759.70
2022-10-24T14:05:02.804Z,96759.14
2022-10-24T14:15:20.654Z,96752.15
2022-10-24T14:25:33.469Z,96755.91
2022-10-24T14:35:37.554Z,96756.56
2022-10-24T14:45:41.162Z,96753.70
2022-10-24T14:55:51.507Z,96758.44
2022-10-24T15:06:10.028Z,96770.92
2022-10-24T15:16:29.011Z,96778.55
2022-10-24T15:26:41.065Z,96785.55
2022-10-24T15:36:47.735Z,96800.70
2022-10-24T15:46:51.558Z,96815.21
2022-10-24T15:56:56.239Z,96803.34
2022-10-24T16:07:00.869Z,96805.33
2022-10-24T16:17:04.960Z,96804.36
2022-10-24T16:27:09.699Z,96803.77
2022-10-24T16:37:13.361Z,96805.09
2022-10-24T16:47:18.354Z,96810.98
2022-10-24T17:07:28.762Z,96832.91
2022-10-24T17:17:35.348Z,96830.10
2022-10-24T17:27:39.962Z,96830.65
2022-10-24T17:37:47.836Z,96824.29
2022-10-24T17:47:53.963Z,96816.65
2022-10-24T17:57:59.264Z,96821.92
2022-10-24T18:08:07.119Z,96815.98
2022-10-24T18:18:12.784Z,96815.65
2022-10-24T18:28:17.221Z,96808.57
2022-10-24T18:38:22.297Z,96799.89
2022-10-24T18:48:30.402Z,96794.28
2022-10-24T18:58:36.566Z,96781.53
2022-10-24T19:08:41.053Z,96786.60
2022-10-24T19:18:55.096Z,96781.89
2022-10-24T19:29:03.533Z,96770.27
2022-10-24T19:39:10.711Z,96772.56
2022-10-24T19:49:15.522Z,96779.11
2022-10-24T19:59:22.295Z,96775.88
2022-10-24T20:09:27.125Z,96765.89
2022-10-24T20:19:32.336Z,96773.60
2022-10-24T20:29:37.352Z,96769.48
2022-10-24T20:39:41.711Z,96769.73
2022-10-24T20:49:45.378Z,96769.09
2022-10-24T20:59:49.859Z,96771.48
2022-10-24T21:09:57.825Z,96766.17
2022-10-24T21:20:03.228Z,96775.81
2022-10-24T21:30:12.156Z,96766.67
2022-10-24T21:40:18.746Z,96770.84
2022-10-24T21:50:22.619Z,96774.00
2022-10-24T22:00:26.423Z,96781.31
2022-10-24T22:10:30.158Z,96773.77
2022-10-24T22:20:35.167Z,96763.94
2022-10-24T22:30:40.515Z,96775.73
2022-10-24T22:40:44.379Z,96786.48
2022-10-24T22:50:54.657Z,96786.17
2022-10-24T23:01:23.382Z,96789.29
2022-10-24T23:11:27.506Z,96787.55
2022-10-24T23:21:38.407Z,96793.33
2022-10-24T23:31:42.330Z,96795.94
2022-10-24T23:41:46.230Z,96790.63
2022-10-24T23:52:12.416Z,96784.94
